<?xml version="1.0" encoding="UTF-8" standalone="no" ?>
<gpx xmlns="http://www.topografix.com/GPX/1/1" xmlns:xsi="http://www.w3.org/2001/XMLSchema-instance" xsi:schemaLocation="http://www.topografix.com/GPX/1/1 http://www.topografix.com/GPX/1/1/gpx.xsd" version="1.1" creator="VisuGPX - https://www.visugpx.com">
  <metadata>
    <name>Belley / Peyrieu1</name>
    <desc><![CDATA[Ain - Bugey.
boucle au départ de Belley.
passage à Rothonne, Pont du Furans, Peyzieu, Chanut, Peyrieu, bord du Rhône, Chantemerle, gare de Brens, les Ecassaz, caveau George Girerd.]]></desc>
  </metadata>
  <trk>
    <name><![CDATA[20181001164408-pCqkJ]]></name>
    <trkseg>
      <trkpt lat="45.75811" lon="5.68909">
        <ele>276.52</ele>
        <time>2011-09-07T11:55:48Z</time>
      </trkpt>
      <trkpt lat="45.75834" lon="5.68873">
        <ele>276.04</ele>
        <time>2011-09-07T11:57:31Z</time>
      </trkpt>
      <trkpt lat="45.75829" lon="5.68854">
        <ele>275.56</ele>
        <time>2011-09-07T11:57:37Z</time>
      </trkpt>
      <trkpt lat="45.75774" lon="5.6881">
        <ele>277</ele>
        <time>2011-09-07T11:57:58Z</time>
      </trkpt>
      <trkpt lat="45.75727" lon="5.68782">
        <ele>278.92</ele>
        <time>2011-09-07T11:58:11Z</time>
      </trkpt>
      <trkpt lat="45.75694" lon="5.68756">
        <ele>280.84</ele>
        <time>2011-09-07T11:58:24Z</time>
      </trkpt>
      <trkpt lat="45.7566" lon="5.68728">
        <ele>282.28</ele>
        <time>2011-09-07T11:58:35Z</time>
      </trkpt>
      <trkpt lat="45.75638" lon="5.68699">
        <ele>284.21</ele>
        <time>2011-09-07T11:58:46Z</time>
      </trkpt>
      <trkpt lat="45.75596" lon="5.68669">
        <ele>286.13</ele>
        <time>2011-09-07T11:58:57Z</time>
      </trkpt>
      <trkpt lat="45.75583" lon="5.68619">
        <ele>289.01</ele>
        <time>2011-09-07T11:59:37Z</time>
      </trkpt>
      <trkpt lat="45.75544" lon="5.68622">
        <ele>289.01</ele>
        <time>2011-09-07T11:59:46Z</time>
      </trkpt>
      <trkpt lat="45.7544" lon="5.68618">
        <ele>294.78</ele>
        <time>2011-09-07T12:00:21Z</time>
      </trkpt>
      <trkpt lat="45.75395" lon="5.68619">
        <ele>295.74</ele>
        <time>2011-09-07T12:00:35Z</time>
      </trkpt>
      <trkpt lat="45.7534" lon="5.68616">
        <ele>295.26</ele>
        <time>2011-09-07T12:00:47Z</time>
      </trkpt>
      <trkpt lat="45.7529" lon="5.68586">
        <ele>295.26</ele>
        <time>2011-09-07T12:01:00Z</time>
      </trkpt>
      <trkpt lat="45.75226" lon="5.68521">
        <ele>295.26</ele>
        <time>2011-09-07T12:01:17Z</time>
      </trkpt>
      <trkpt lat="45.75127" lon="5.68412">
        <ele>294.78</ele>
        <time>2011-09-07T12:01:45Z</time>
      </trkpt>
      <trkpt lat="45.75092" lon="5.68379">
        <ele>294.3</ele>
        <time>2011-09-07T12:01:54Z</time>
      </trkpt>
      <trkpt lat="45.75036" lon="5.68318">
        <ele>293.34</ele>
        <time>2011-09-07T12:02:09Z</time>
      </trkpt>
      <trkpt lat="45.74971" lon="5.68249">
        <ele>292.86</ele>
        <time>2011-09-07T12:02:25Z</time>
      </trkpt>
      <trkpt lat="45.74903" lon="5.68183">
        <ele>291.9</ele>
        <time>2011-09-07T12:02:40Z</time>
      </trkpt>
      <trkpt lat="45.74807" lon="5.68112">
        <ele>289.97</ele>
        <time>2011-09-07T12:02:59Z</time>
      </trkpt>
      <trkpt lat="45.74722" lon="5.68106">
        <ele>289.01</ele>
        <time>2011-09-07T12:03:15Z</time>
      </trkpt>
      <trkpt lat="45.74642" lon="5.68103">
        <ele>287.57</ele>
        <time>2011-09-07T12:03:30Z</time>
      </trkpt>
      <trkpt lat="45.74551" lon="5.681">
        <ele>284.69</ele>
        <time>2011-09-07T12:04:10Z</time>
      </trkpt>
      <trkpt lat="45.745" lon="5.68099">
        <ele>283.25</ele>
        <time>2011-09-07T12:04:24Z</time>
      </trkpt>
      <trkpt lat="45.74457" lon="5.68099">
        <ele>283.25</ele>
        <time>2011-09-07T12:04:36Z</time>
      </trkpt>
      <trkpt lat="45.74367" lon="5.68089">
        <ele>281.32</ele>
        <time>2011-09-07T12:04:53Z</time>
      </trkpt>
      <trkpt lat="45.74317" lon="5.68047">
        <ele>281.8</ele>
        <time>2011-09-07T12:05:06Z</time>
      </trkpt>
      <trkpt lat="45.74275" lon="5.67989">
        <ele>281.32</ele>
        <time>2011-09-07T12:05:17Z</time>
      </trkpt>
      <trkpt lat="45.74217" lon="5.67903">
        <ele>280.84</ele>
        <time>2011-09-07T12:05:35Z</time>
      </trkpt>
      <trkpt lat="45.74172" lon="5.67837">
        <ele>281.32</ele>
        <time>2011-09-07T12:05:48Z</time>
      </trkpt>
      <trkpt lat="45.74099" lon="5.67734">
        <ele>282.28</ele>
        <time>2011-09-07T12:06:22Z</time>
      </trkpt>
      <trkpt lat="45.74052" lon="5.67801">
        <ele>286.61</ele>
        <time>2011-09-07T12:06:49Z</time>
      </trkpt>
      <trkpt lat="45.74022" lon="5.67745">
        <ele>287.09</ele>
        <time>2011-09-07T12:07:10Z</time>
      </trkpt>
      <trkpt lat="45.74003" lon="5.67719">
        <ele>287.57</ele>
        <time>2011-09-07T12:07:32Z</time>
      </trkpt>
      <trkpt lat="45.73966" lon="5.67667">
        <ele>288.53</ele>
        <time>2011-09-07T12:07:57Z</time>
      </trkpt>
      <trkpt lat="45.73947" lon="5.67646">
        <ele>289.49</ele>
        <time>2011-09-07T12:08:08Z</time>
      </trkpt>
      <trkpt lat="45.73904" lon="5.67612">
        <ele>288.53</ele>
        <time>2011-09-07T12:08:27Z</time>
      </trkpt>
      <trkpt lat="45.73879" lon="5.67585">
        <ele>288.05</ele>
        <time>2011-09-07T12:08:41Z</time>
      </trkpt>
      <trkpt lat="45.7385" lon="5.67559">
        <ele>288.05</ele>
        <time>2011-09-07T12:08:55Z</time>
      </trkpt>
      <trkpt lat="45.73811" lon="5.67531">
        <ele>288.05</ele>
        <time>2011-09-07T12:09:10Z</time>
      </trkpt>
      <trkpt lat="45.73781" lon="5.67509">
        <ele>288.53</ele>
        <time>2011-09-07T12:09:25Z</time>
      </trkpt>
      <trkpt lat="45.73732" lon="5.67477">
        <ele>289.49</ele>
        <time>2011-09-07T12:09:52Z</time>
      </trkpt>
      <trkpt lat="45.73687" lon="5.67447">
        <ele>289.97</ele>
        <time>2011-09-07T12:10:20Z</time>
      </trkpt>
      <trkpt lat="45.73662" lon="5.67432">
        <ele>290.46</ele>
        <time>2011-09-07T12:11:20Z</time>
      </trkpt>
      <trkpt lat="45.73643" lon="5.67422">
        <ele>290.94</ele>
        <time>2011-09-07T12:11:29Z</time>
      </trkpt>
      <trkpt lat="45.73609" lon="5.67405">
        <ele>291.9</ele>
        <time>2011-09-07T12:11:41Z</time>
      </trkpt>
      <trkpt lat="45.73561" lon="5.67387">
        <ele>293.34</ele>
        <time>2011-09-07T12:12:01Z</time>
      </trkpt>
      <trkpt lat="45.73514" lon="5.67367">
        <ele>294.78</ele>
        <time>2011-09-07T12:12:13Z</time>
      </trkpt>
      <trkpt lat="45.73491" lon="5.67351">
        <ele>296.22</ele>
        <time>2011-09-07T12:13:02Z</time>
      </trkpt>
      <trkpt lat="45.73459" lon="5.67312">
        <ele>294.78</ele>
        <time>2011-09-07T12:13:11Z</time>
      </trkpt>
      <trkpt lat="45.73436" lon="5.673">
        <ele>310.16</ele>
        <time>2011-09-07T13:00:26Z</time>
      </trkpt>
      <trkpt lat="45.73398" lon="5.67268">
        <ele>309.2</ele>
        <time>2011-09-07T13:00:38Z</time>
      </trkpt>
      <trkpt lat="45.73372" lon="5.67248">
        <ele>309.68</ele>
        <time>2011-09-07T13:00:46Z</time>
      </trkpt>
      <trkpt lat="45.73348" lon="5.67232">
        <ele>309.2</ele>
        <time>2011-09-07T13:00:53Z</time>
      </trkpt>
      <trkpt lat="45.7332" lon="5.67201">
        <ele>309.2</ele>
        <time>2011-09-07T13:01:01Z</time>
      </trkpt>
      <trkpt lat="45.73282" lon="5.67174">
        <ele>308.72</ele>
        <time>2011-09-07T13:01:10Z</time>
      </trkpt>
      <trkpt lat="45.73229" lon="5.67154">
        <ele>307.28</ele>
        <time>2011-09-07T13:01:23Z</time>
      </trkpt>
      <trkpt lat="45.73186" lon="5.67122">
        <ele>305.36</ele>
        <time>2011-09-07T13:01:36Z</time>
      </trkpt>
      <trkpt lat="45.73173" lon="5.67115">
        <ele>305.36</ele>
        <time>2011-09-07T13:01:43Z</time>
      </trkpt>
      <trkpt lat="45.73145" lon="5.67109">
        <ele>306.32</ele>
        <time>2011-09-07T13:01:52Z</time>
      </trkpt>
      <trkpt lat="45.73114" lon="5.67095">
        <ele>308.24</ele>
        <time>2011-09-07T13:02:04Z</time>
      </trkpt>
      <trkpt lat="45.73103" lon="5.671">
        <ele>309.68</ele>
        <time>2011-09-07T13:02:12Z</time>
      </trkpt>
      <trkpt lat="45.73071" lon="5.67103">
        <ele>312.09</ele>
        <time>2011-09-07T13:02:22Z</time>
      </trkpt>
      <trkpt lat="45.73023" lon="5.67095">
        <ele>309.2</ele>
        <time>2011-09-07T13:02:36Z</time>
      </trkpt>
      <trkpt lat="45.7298" lon="5.67076">
        <ele>306.8</ele>
        <time>2011-09-07T13:02:45Z</time>
      </trkpt>
      <trkpt lat="45.72948" lon="5.67059">
        <ele>305.84</ele>
        <time>2011-09-07T13:02:53Z</time>
      </trkpt>
      <trkpt lat="45.7292" lon="5.67039">
        <ele>305.36</ele>
        <time>2011-09-07T13:03:00Z</time>
      </trkpt>
      <trkpt lat="45.72891" lon="5.67027">
        <ele>303.91</ele>
        <time>2011-09-07T13:03:06Z</time>
      </trkpt>
      <trkpt lat="45.7287" lon="5.67038">
        <ele>304.88</ele>
        <time>2011-09-07T13:03:12Z</time>
      </trkpt>
      <trkpt lat="45.72856" lon="5.67057">
        <ele>307.28</ele>
        <time>2011-09-07T13:03:22Z</time>
      </trkpt>
      <trkpt lat="45.72844" lon="5.67067">
        <ele>308.24</ele>
        <time>2011-09-07T13:03:31Z</time>
      </trkpt>
      <trkpt lat="45.72811" lon="5.67066">
        <ele>312.57</ele>
        <time>2011-09-07T13:03:55Z</time>
      </trkpt>
      <trkpt lat="45.72787" lon="5.6706">
        <ele>314.01</ele>
        <time>2011-09-07T13:04:06Z</time>
      </trkpt>
      <trkpt lat="45.72754" lon="5.67056">
        <ele>316.41</ele>
        <time>2011-09-07T13:04:23Z</time>
      </trkpt>
      <trkpt lat="45.72742" lon="5.67048">
        <ele>317.37</ele>
        <time>2011-09-07T13:04:30Z</time>
      </trkpt>
      <trkpt lat="45.72699" lon="5.67037">
        <ele>318.81</ele>
        <time>2011-09-07T13:04:51Z</time>
      </trkpt>
      <trkpt lat="45.72658" lon="5.67033">
        <ele>323.14</ele>
        <time>2011-09-07T13:05:21Z</time>
      </trkpt>
      <trkpt lat="45.72622" lon="5.67042">
        <ele>326.99</ele>
        <time>2011-09-07T13:07:13Z</time>
      </trkpt>
      <trkpt lat="45.72599" lon="5.67056">
        <ele>326.02</ele>
        <time>2011-09-07T13:07:20Z</time>
      </trkpt>
      <trkpt lat="45.72569" lon="5.67064">
        <ele>327.95</ele>
        <time>2011-09-07T13:07:30Z</time>
      </trkpt>
      <trkpt lat="45.72548" lon="5.67042">
        <ele>329.39</ele>
        <time>2011-09-07T13:07:41Z</time>
      </trkpt>
      <trkpt lat="45.725" lon="5.67018">
        <ele>329.39</ele>
        <time>2011-09-07T13:07:56Z</time>
      </trkpt>
      <trkpt lat="45.72466" lon="5.67032">
        <ele>327.47</ele>
        <time>2011-09-07T13:08:05Z</time>
      </trkpt>
      <trkpt lat="45.72428" lon="5.67046">
        <ele>332.75</ele>
        <time>2011-09-07T13:08:34Z</time>
      </trkpt>
      <trkpt lat="45.72399" lon="5.67055">
        <ele>333.71</ele>
        <time>2011-09-07T13:09:05Z</time>
      </trkpt>
      <trkpt lat="45.72372" lon="5.67071">
        <ele>333.23</ele>
        <time>2011-09-07T13:09:24Z</time>
      </trkpt>
      <trkpt lat="45.72354" lon="5.67114">
        <ele>328.91</ele>
        <time>2011-09-07T13:09:31Z</time>
      </trkpt>
      <trkpt lat="45.72344" lon="5.6715">
        <ele>326.02</ele>
        <time>2011-09-07T13:09:36Z</time>
      </trkpt>
      <trkpt lat="45.72312" lon="5.67178">
        <ele>323.62</ele>
        <time>2011-09-07T13:09:43Z</time>
      </trkpt>
      <trkpt lat="45.72283" lon="5.67157">
        <ele>322.18</ele>
        <time>2011-09-07T13:09:49Z</time>
      </trkpt>
      <trkpt lat="45.72259" lon="5.67119">
        <ele>321.22</ele>
        <time>2011-09-07T13:09:59Z</time>
      </trkpt>
      <trkpt lat="45.72226" lon="5.67067">
        <ele>320.26</ele>
        <time>2011-09-07T13:10:11Z</time>
      </trkpt>
      <trkpt lat="45.72203" lon="5.67042">
        <ele>323.62</ele>
        <time>2011-09-07T13:10:21Z</time>
      </trkpt>
      <trkpt lat="45.72192" lon="5.67035">
        <ele>325.06</ele>
        <time>2011-09-07T13:10:27Z</time>
      </trkpt>
      <trkpt lat="45.72172" lon="5.67038">
        <ele>326.5</ele>
        <time>2011-09-07T13:10:39Z</time>
      </trkpt>
      <trkpt lat="45.72139" lon="5.67075">
        <ele>326.02</ele>
        <time>2011-09-07T13:12:02Z</time>
      </trkpt>
      <trkpt lat="45.72114" lon="5.67072">
        <ele>326.02</ele>
        <time>2011-09-07T13:12:11Z</time>
      </trkpt>
      <trkpt lat="45.72084" lon="5.67059">
        <ele>326.99</ele>
        <time>2011-09-07T13:12:19Z</time>
      </trkpt>
      <trkpt lat="45.72047" lon="5.67075">
        <ele>326.5</ele>
        <time>2011-09-07T13:12:31Z</time>
      </trkpt>
      <trkpt lat="45.71994" lon="5.67097">
        <ele>323.62</ele>
        <time>2011-09-07T13:12:40Z</time>
      </trkpt>
      <trkpt lat="45.71954" lon="5.67104">
        <ele>323.14</ele>
        <time>2011-09-07T13:12:49Z</time>
      </trkpt>
      <trkpt lat="45.71903" lon="5.67089">
        <ele>322.66</ele>
        <time>2011-09-07T13:13:00Z</time>
      </trkpt>
      <trkpt lat="45.71878" lon="5.67084">
        <ele>324.1</ele>
        <time>2011-09-07T13:13:08Z</time>
      </trkpt>
      <trkpt lat="45.71858" lon="5.67084">
        <ele>326.5</ele>
        <time>2011-09-07T13:13:17Z</time>
      </trkpt>
      <trkpt lat="45.71836" lon="5.67092">
        <ele>327.47</ele>
        <time>2011-09-07T13:13:28Z</time>
      </trkpt>
      <trkpt lat="45.71842" lon="5.67133">
        <ele>330.83</ele>
        <time>2011-09-07T13:14:35Z</time>
      </trkpt>
      <trkpt lat="45.71855" lon="5.6717">
        <ele>331.31</ele>
        <time>2011-09-07T13:14:47Z</time>
      </trkpt>
      <trkpt lat="45.71858" lon="5.6719">
        <ele>329.87</ele>
        <time>2011-09-07T13:14:52Z</time>
      </trkpt>
      <trkpt lat="45.71855" lon="5.6721">
        <ele>327.95</ele>
        <time>2011-09-07T13:14:57Z</time>
      </trkpt>
      <trkpt lat="45.71867" lon="5.67252">
        <ele>320.26</ele>
        <time>2011-09-07T13:15:08Z</time>
      </trkpt>
      <trkpt lat="45.71849" lon="5.67287">
        <ele>318.33</ele>
        <time>2011-09-07T13:15:16Z</time>
      </trkpt>
      <trkpt lat="45.71848" lon="5.67379">
        <ele>320.26</ele>
        <time>2011-09-07T13:15:36Z</time>
      </trkpt>
      <trkpt lat="45.71823" lon="5.67406">
        <ele>322.18</ele>
        <time>2011-09-07T13:15:47Z</time>
      </trkpt>
      <trkpt lat="45.71793" lon="5.67422">
        <ele>323.14</ele>
        <time>2011-09-07T13:15:57Z</time>
      </trkpt>
      <trkpt lat="45.71775" lon="5.67439">
        <ele>324.58</ele>
        <time>2011-09-07T13:16:06Z</time>
      </trkpt>
      <trkpt lat="45.71761" lon="5.67467">
        <ele>325.06</ele>
        <time>2011-09-07T13:16:13Z</time>
      </trkpt>
      <trkpt lat="45.71759" lon="5.67485">
        <ele>326.02</ele>
        <time>2011-09-07T13:16:55Z</time>
      </trkpt>
      <trkpt lat="45.7171" lon="5.67477">
        <ele>323.62</ele>
        <time>2011-09-07T13:17:05Z</time>
      </trkpt>
      <trkpt lat="45.7169" lon="5.67491">
        <ele>321.22</ele>
        <time>2011-09-07T13:17:10Z</time>
      </trkpt>
      <trkpt lat="45.71666" lon="5.67496">
        <ele>319.78</ele>
        <time>2011-09-07T13:17:16Z</time>
      </trkpt>
      <trkpt lat="45.71644" lon="5.67489">
        <ele>315.45</ele>
        <time>2011-09-07T13:17:23Z</time>
      </trkpt>
      <trkpt lat="45.71629" lon="5.67487">
        <ele>313.53</ele>
        <time>2011-09-07T13:17:27Z</time>
      </trkpt>
      <trkpt lat="45.71619" lon="5.67492">
        <ele>311.12</ele>
        <time>2011-09-07T13:17:31Z</time>
      </trkpt>
      <trkpt lat="45.71609" lon="5.67512">
        <ele>308.72</ele>
        <time>2011-09-07T13:17:37Z</time>
      </trkpt>
      <trkpt lat="45.71584" lon="5.67547">
        <ele>301.03</ele>
        <time>2011-09-07T13:17:48Z</time>
      </trkpt>
      <trkpt lat="45.71563" lon="5.67552">
        <ele>298.63</ele>
        <time>2011-09-07T13:17:52Z</time>
      </trkpt>
      <trkpt lat="45.71527" lon="5.67547">
        <ele>294.78</ele>
        <time>2011-09-07T13:17:58Z</time>
      </trkpt>
      <trkpt lat="45.71503" lon="5.67542">
        <ele>292.86</ele>
        <time>2011-09-07T13:18:03Z</time>
      </trkpt>
      <trkpt lat="45.7146" lon="5.67514">
        <ele>288.53</ele>
        <time>2011-09-07T13:18:14Z</time>
      </trkpt>
      <trkpt lat="45.71432" lon="5.67511">
        <ele>285.17</ele>
        <time>2011-09-07T13:18:21Z</time>
      </trkpt>
      <trkpt lat="45.71411" lon="5.67511">
        <ele>283.25</ele>
        <time>2011-09-07T13:18:25Z</time>
      </trkpt>
      <trkpt lat="45.71378" lon="5.67507">
        <ele>280.84</ele>
        <time>2011-09-07T13:18:31Z</time>
      </trkpt>
      <trkpt lat="45.71329" lon="5.67472">
        <ele>276.52</ele>
        <time>2011-09-07T13:18:43Z</time>
      </trkpt>
      <trkpt lat="45.71301" lon="5.67443">
        <ele>273.15</ele>
        <time>2011-09-07T13:18:49Z</time>
      </trkpt>
      <trkpt lat="45.71275" lon="5.67409">
        <ele>270.27</ele>
        <time>2011-09-07T13:18:55Z</time>
      </trkpt>
      <trkpt lat="45.71268" lon="5.67388">
        <ele>268.83</ele>
        <time>2011-09-07T13:19:05Z</time>
      </trkpt>
      <trkpt lat="45.71244" lon="5.67403">
        <ele>268.35</ele>
        <time>2011-09-07T13:19:52Z</time>
      </trkpt>
      <trkpt lat="45.7121" lon="5.67422">
        <ele>266.9</ele>
        <time>2011-09-07T13:20:01Z</time>
      </trkpt>
      <trkpt lat="45.71147" lon="5.67449">
        <ele>264.02</ele>
        <time>2011-09-07T13:20:18Z</time>
      </trkpt>
      <trkpt lat="45.71137" lon="5.67458">
        <ele>263.54</ele>
        <time>2011-09-07T13:20:22Z</time>
      </trkpt>
      <trkpt lat="45.71123" lon="5.67501">
        <ele>263.06</ele>
        <time>2011-09-07T13:20:32Z</time>
      </trkpt>
      <trkpt lat="45.7112" lon="5.67537">
        <ele>264.02</ele>
        <time>2011-09-07T13:20:38Z</time>
      </trkpt>
      <trkpt lat="45.71105" lon="5.67631">
        <ele>265.94</ele>
        <time>2011-09-07T13:20:58Z</time>
      </trkpt>
      <trkpt lat="45.71091" lon="5.67646">
        <ele>264.5</ele>
        <time>2011-09-07T13:21:03Z</time>
      </trkpt>
      <trkpt lat="45.71028" lon="5.67646">
        <ele>259.21</ele>
        <time>2011-09-07T13:21:18Z</time>
      </trkpt>
      <trkpt lat="45.70963" lon="5.67648">
        <ele>253.44</ele>
        <time>2011-09-07T13:21:30Z</time>
      </trkpt>
      <trkpt lat="45.70934" lon="5.67648">
        <ele>250.56</ele>
        <time>2011-09-07T13:21:34Z</time>
      </trkpt>
      <trkpt lat="45.70914" lon="5.67648">
        <ele>248.16</ele>
        <time>2011-09-07T13:21:37Z</time>
      </trkpt>
      <trkpt lat="45.70904" lon="5.67646">
        <ele>245.75</ele>
        <time>2011-09-07T13:21:40Z</time>
      </trkpt>
      <trkpt lat="45.70886" lon="5.67632">
        <ele>244.31</ele>
        <time>2011-09-07T13:22:03Z</time>
      </trkpt>
      <trkpt lat="45.70852" lon="5.67644">
        <ele>244.31</ele>
        <time>2011-09-07T13:22:11Z</time>
      </trkpt>
      <trkpt lat="45.7078" lon="5.67644">
        <ele>243.83</ele>
        <time>2011-09-07T13:22:24Z</time>
      </trkpt>
      <trkpt lat="45.70692" lon="5.67642">
        <ele>241.91</ele>
        <time>2011-09-07T13:22:40Z</time>
      </trkpt>
      <trkpt lat="45.70632" lon="5.67632">
        <ele>241.91</ele>
        <time>2011-09-07T13:22:56Z</time>
      </trkpt>
      <trkpt lat="45.70633" lon="5.67565">
        <ele>241.91</ele>
        <time>2011-09-07T13:23:12Z</time>
      </trkpt>
      <trkpt lat="45.70624" lon="5.67472">
        <ele>241.91</ele>
        <time>2011-09-07T13:23:32Z</time>
      </trkpt>
      <trkpt lat="45.70608" lon="5.67415">
        <ele>241.43</ele>
        <time>2011-09-07T13:23:47Z</time>
      </trkpt>
      <trkpt lat="45.70589" lon="5.67347">
        <ele>240.95</ele>
        <time>2011-09-07T13:24:05Z</time>
      </trkpt>
      <trkpt lat="45.70585" lon="5.67289">
        <ele>240.95</ele>
        <time>2011-09-07T13:24:18Z</time>
      </trkpt>
      <trkpt lat="45.70595" lon="5.67214">
        <ele>241.43</ele>
        <time>2011-09-07T13:24:33Z</time>
      </trkpt>
      <trkpt lat="45.70615" lon="5.6716">
        <ele>241.43</ele>
        <time>2011-09-07T13:24:47Z</time>
      </trkpt>
      <trkpt lat="45.70634" lon="5.67109">
        <ele>242.87</ele>
        <time>2011-09-07T13:24:59Z</time>
      </trkpt>
      <trkpt lat="45.70662" lon="5.67026">
        <ele>247.2</ele>
        <time>2011-09-07T13:25:55Z</time>
      </trkpt>
      <trkpt lat="45.70673" lon="5.66984">
        <ele>251.04</ele>
        <time>2011-09-07T13:26:24Z</time>
      </trkpt>
      <trkpt lat="45.70694" lon="5.66918">
        <ele>258.73</ele>
        <time>2011-09-07T13:27:15Z</time>
      </trkpt>
      <trkpt lat="45.70697" lon="5.66885">
        <ele>261.14</ele>
        <time>2011-09-07T13:27:30Z</time>
      </trkpt>
      <trkpt lat="45.70696" lon="5.66841">
        <ele>262.58</ele>
        <time>2011-09-07T13:27:44Z</time>
      </trkpt>
      <trkpt lat="45.70696" lon="5.66761">
        <ele>262.58</ele>
        <time>2011-09-07T13:28:03Z</time>
      </trkpt>
      <trkpt lat="45.70711" lon="5.66555">
        <ele>261.14</ele>
        <time>2011-09-07T13:28:37Z</time>
      </trkpt>
      <trkpt lat="45.70722" lon="5.66466">
        <ele>259.21</ele>
        <time>2011-09-07T13:29:02Z</time>
      </trkpt>
      <trkpt lat="45.70721" lon="5.66466">
        <ele>258.73</ele>
        <time>2011-09-07T13:29:23Z</time>
      </trkpt>
      <trkpt lat="45.70711" lon="5.66467">
        <ele>258.25</ele>
        <time>2011-09-07T13:29:58Z</time>
      </trkpt>
      <trkpt lat="45.70622" lon="5.66546">
        <ele>257.29</ele>
        <time>2011-09-07T13:30:28Z</time>
      </trkpt>
      <trkpt lat="45.7059" lon="5.66577">
        <ele>257.29</ele>
        <time>2011-09-07T13:30:42Z</time>
      </trkpt>
      <trkpt lat="45.70533" lon="5.66631">
        <ele>255.85</ele>
        <time>2011-09-07T13:31:11Z</time>
      </trkpt>
      <trkpt lat="45.70496" lon="5.66669">
        <ele>255.37</ele>
        <time>2011-09-07T13:31:28Z</time>
      </trkpt>
      <trkpt lat="45.70462" lon="5.66698">
        <ele>255.37</ele>
        <time>2011-09-07T13:31:42Z</time>
      </trkpt>
      <trkpt lat="45.70424" lon="5.66731">
        <ele>254.41</ele>
        <time>2011-09-07T13:31:59Z</time>
      </trkpt>
      <trkpt lat="45.70376" lon="5.66758">
        <ele>253.44</ele>
        <time>2011-09-07T13:32:18Z</time>
      </trkpt>
      <trkpt lat="45.70326" lon="5.66788">
        <ele>252</ele>
        <time>2011-09-07T13:32:37Z</time>
      </trkpt>
      <trkpt lat="45.70282" lon="5.66817">
        <ele>252</ele>
        <time>2011-09-07T13:32:54Z</time>
      </trkpt>
      <trkpt lat="45.70239" lon="5.66838">
        <ele>251.52</ele>
        <time>2011-09-07T13:33:15Z</time>
      </trkpt>
      <trkpt lat="45.70235" lon="5.66835">
        <ele>251.04</ele>
        <time>2011-09-07T13:33:28Z</time>
      </trkpt>
      <trkpt lat="45.70247" lon="5.66771">
        <ele>250.56</ele>
        <time>2011-09-07T13:33:43Z</time>
      </trkpt>
      <trkpt lat="45.70262" lon="5.66703">
        <ele>250.08</ele>
        <time>2011-09-07T13:33:56Z</time>
      </trkpt>
      <trkpt lat="45.70284" lon="5.66668">
        <ele>249.12</ele>
        <time>2011-09-07T13:34:03Z</time>
      </trkpt>
      <trkpt lat="45.703" lon="5.66648">
        <ele>248.64</ele>
        <time>2011-09-07T13:34:08Z</time>
      </trkpt>
      <trkpt lat="45.70309" lon="5.66631">
        <ele>249.12</ele>
        <time>2011-09-07T13:34:12Z</time>
      </trkpt>
      <trkpt lat="45.70317" lon="5.66599">
        <ele>248.64</ele>
        <time>2011-09-07T13:34:18Z</time>
      </trkpt>
      <trkpt lat="45.7032" lon="5.66527">
        <ele>248.16</ele>
        <time>2011-09-07T13:34:31Z</time>
      </trkpt>
      <trkpt lat="45.70317" lon="5.66521">
        <ele>248.64</ele>
        <time>2011-09-07T13:34:33Z</time>
      </trkpt>
      <trkpt lat="45.70306" lon="5.66527">
        <ele>248.16</ele>
        <time>2011-09-07T13:34:37Z</time>
      </trkpt>
      <trkpt lat="45.70251" lon="5.66583">
        <ele>247.2</ele>
        <time>2011-09-07T13:34:53Z</time>
      </trkpt>
      <trkpt lat="45.70183" lon="5.66648">
        <ele>247.2</ele>
        <time>2011-09-07T13:35:12Z</time>
      </trkpt>
      <trkpt lat="45.70121" lon="5.66702">
        <ele>247.68</ele>
        <time>2011-09-07T13:35:29Z</time>
      </trkpt>
      <trkpt lat="45.70062" lon="5.66758">
        <ele>246.23</ele>
        <time>2011-09-07T13:35:47Z</time>
      </trkpt>
      <trkpt lat="45.7002" lon="5.66816">
        <ele>245.75</ele>
        <time>2011-09-07T13:36:04Z</time>
      </trkpt>
      <trkpt lat="45.69965" lon="5.66879">
        <ele>244.31</ele>
        <time>2011-09-07T13:36:22Z</time>
      </trkpt>
      <trkpt lat="45.69918" lon="5.66945">
        <ele>242.39</ele>
        <time>2011-09-07T13:36:38Z</time>
      </trkpt>
      <trkpt lat="45.69862" lon="5.66975">
        <ele>239.51</ele>
        <time>2011-09-07T13:36:54Z</time>
      </trkpt>
      <trkpt lat="45.6982" lon="5.66978">
        <ele>238.54</ele>
        <time>2011-09-07T13:37:06Z</time>
      </trkpt>
      <trkpt lat="45.69765" lon="5.66965">
        <ele>237.1</ele>
        <time>2011-09-07T13:37:21Z</time>
      </trkpt>
      <trkpt lat="45.69698" lon="5.66941">
        <ele>235.18</ele>
        <time>2011-09-07T13:37:49Z</time>
      </trkpt>
      <trkpt lat="45.69697" lon="5.66942">
        <ele>234.7</ele>
        <time>2011-09-07T13:38:38Z</time>
      </trkpt>
      <trkpt lat="45.69697" lon="5.66942">
        <ele>234.22</ele>
        <time>2011-09-07T13:39:08Z</time>
      </trkpt>
      <trkpt lat="45.69698" lon="5.66941">
        <ele>234.22</ele>
        <time>2011-09-07T13:39:57Z</time>
      </trkpt>
      <trkpt lat="45.69631" lon="5.66903">
        <ele>234.22</ele>
        <time>2011-09-07T13:40:19Z</time>
      </trkpt>
      <trkpt lat="45.69594" lon="5.66891">
        <ele>236.14</ele>
        <time>2011-09-07T13:40:33Z</time>
      </trkpt>
      <trkpt lat="45.69543" lon="5.66964">
        <ele>235.66</ele>
        <time>2011-09-07T13:40:50Z</time>
      </trkpt>
      <trkpt lat="45.69512" lon="5.67008">
        <ele>235.66</ele>
        <time>2011-09-07T13:40:59Z</time>
      </trkpt>
      <trkpt lat="45.69477" lon="5.67127">
        <ele>235.66</ele>
        <time>2011-09-07T13:41:18Z</time>
      </trkpt>
      <trkpt lat="45.69446" lon="5.67199">
        <ele>236.62</ele>
        <time>2011-09-07T13:41:33Z</time>
      </trkpt>
      <trkpt lat="45.6939" lon="5.67321">
        <ele>237.1</ele>
        <time>2011-09-07T13:41:58Z</time>
      </trkpt>
      <trkpt lat="45.69294" lon="5.67442">
        <ele>240.95</ele>
        <time>2011-09-07T13:42:31Z</time>
      </trkpt>
      <trkpt lat="45.69249" lon="5.67488">
        <ele>241.91</ele>
        <time>2011-09-07T13:42:49Z</time>
      </trkpt>
      <trkpt lat="45.69202" lon="5.6752">
        <ele>243.35</ele>
        <time>2011-09-07T13:43:07Z</time>
      </trkpt>
      <trkpt lat="45.69156" lon="5.67541">
        <ele>242.87</ele>
        <time>2011-09-07T13:43:21Z</time>
      </trkpt>
      <trkpt lat="45.69116" lon="5.67601">
        <ele>243.83</ele>
        <time>2011-09-07T13:43:43Z</time>
      </trkpt>
      <trkpt lat="45.69108" lon="5.67598">
        <ele>243.83</ele>
        <time>2011-09-07T13:43:47Z</time>
      </trkpt>
      <trkpt lat="45.6909" lon="5.67518">
        <ele>245.27</ele>
        <time>2011-09-07T13:44:07Z</time>
      </trkpt>
      <trkpt lat="45.69077" lon="5.67456">
        <ele>247.2</ele>
        <time>2011-09-07T13:44:24Z</time>
      </trkpt>
      <trkpt lat="45.69053" lon="5.67413">
        <ele>248.16</ele>
        <time>2011-09-07T13:44:40Z</time>
      </trkpt>
      <trkpt lat="45.69026" lon="5.67367">
        <ele>249.6</ele>
        <time>2011-09-07T13:44:56Z</time>
      </trkpt>
      <trkpt lat="45.68997" lon="5.67306">
        <ele>250.08</ele>
        <time>2011-09-07T13:45:15Z</time>
      </trkpt>
      <trkpt lat="45.68997" lon="5.67254">
        <ele>251.04</ele>
        <time>2011-09-07T13:45:29Z</time>
      </trkpt>
      <trkpt lat="45.69017" lon="5.67199">
        <ele>251.52</ele>
        <time>2011-09-07T13:45:46Z</time>
      </trkpt>
      <trkpt lat="45.69042" lon="5.67167">
        <ele>253.44</ele>
        <time>2011-09-07T13:46:02Z</time>
      </trkpt>
      <trkpt lat="45.69066" lon="5.67152">
        <ele>255.37</ele>
        <time>2011-09-07T13:46:16Z</time>
      </trkpt>
      <trkpt lat="45.69074" lon="5.67116">
        <ele>256.81</ele>
        <time>2011-09-07T13:46:30Z</time>
      </trkpt>
      <trkpt lat="45.69077" lon="5.67055">
        <ele>257.29</ele>
        <time>2011-09-07T13:46:49Z</time>
      </trkpt>
      <trkpt lat="45.69083" lon="5.67007">
        <ele>258.25</ele>
        <time>2011-09-07T13:47:05Z</time>
      </trkpt>
      <trkpt lat="45.69071" lon="5.66982">
        <ele>259.69</ele>
        <time>2011-09-07T13:47:19Z</time>
      </trkpt>
      <trkpt lat="45.69045" lon="5.66972">
        <ele>260.65</ele>
        <time>2011-09-07T13:47:35Z</time>
      </trkpt>
      <trkpt lat="45.69021" lon="5.66969">
        <ele>259.69</ele>
        <time>2011-09-07T13:47:50Z</time>
      </trkpt>
      <trkpt lat="45.68995" lon="5.6699">
        <ele>258.73</ele>
        <time>2011-09-07T13:48:03Z</time>
      </trkpt>
      <trkpt lat="45.68955" lon="5.67006">
        <ele>257.77</ele>
        <time>2011-09-07T13:48:17Z</time>
      </trkpt>
      <trkpt lat="45.68915" lon="5.67015">
        <ele>256.81</ele>
        <time>2011-09-07T13:48:33Z</time>
      </trkpt>
      <trkpt lat="45.68888" lon="5.67016">
        <ele>256.81</ele>
        <time>2011-09-07T13:48:46Z</time>
      </trkpt>
      <trkpt lat="45.68779" lon="5.67043">
        <ele>257.29</ele>
        <time>2011-09-07T13:49:54Z</time>
      </trkpt>
      <trkpt lat="45.68722" lon="5.67073">
        <ele>257.29</ele>
        <time>2011-09-07T13:50:24Z</time>
      </trkpt>
      <trkpt lat="45.68701" lon="5.67094">
        <ele>257.77</ele>
        <time>2011-09-07T13:50:39Z</time>
      </trkpt>
      <trkpt lat="45.68705" lon="5.67138">
        <ele>255.85</ele>
        <time>2011-09-07T13:50:53Z</time>
      </trkpt>
      <trkpt lat="45.68683" lon="5.67156">
        <ele>256.33</ele>
        <time>2011-09-07T13:51:04Z</time>
      </trkpt>
      <trkpt lat="45.68642" lon="5.67178">
        <ele>257.29</ele>
        <time>2011-09-07T13:51:22Z</time>
      </trkpt>
      <trkpt lat="45.68601" lon="5.67209">
        <ele>258.73</ele>
        <time>2011-09-07T13:51:41Z</time>
      </trkpt>
      <trkpt lat="45.68494" lon="5.67279">
        <ele>259.69</ele>
        <time>2011-09-07T13:52:20Z</time>
      </trkpt>
      <trkpt lat="45.68461" lon="5.67317">
        <ele>259.69</ele>
        <time>2011-09-07T13:52:33Z</time>
      </trkpt>
      <trkpt lat="45.68432" lon="5.67375">
        <ele>258.25</ele>
        <time>2011-09-07T13:52:45Z</time>
      </trkpt>
      <trkpt lat="45.6841" lon="5.67416">
        <ele>256.33</ele>
        <time>2011-09-07T13:52:53Z</time>
      </trkpt>
      <trkpt lat="45.6841" lon="5.67436">
        <ele>255.85</ele>
        <time>2011-09-07T13:52:56Z</time>
      </trkpt>
      <trkpt lat="45.68451" lon="5.6749">
        <ele>253.93</ele>
        <time>2011-09-07T13:53:06Z</time>
      </trkpt>
      <trkpt lat="45.68489" lon="5.67596">
        <ele>251.04</ele>
        <time>2011-09-07T13:53:22Z</time>
      </trkpt>
      <trkpt lat="45.68489" lon="5.67605">
        <ele>250.56</ele>
        <time>2011-09-07T13:53:25Z</time>
      </trkpt>
      <trkpt lat="45.68484" lon="5.6761">
        <ele>250.56</ele>
        <time>2011-09-07T13:53:30Z</time>
      </trkpt>
      <trkpt lat="45.68397" lon="5.67609">
        <ele>251.04</ele>
        <time>2011-09-07T13:53:58Z</time>
      </trkpt>
      <trkpt lat="45.68353" lon="5.67612">
        <ele>251.52</ele>
        <time>2011-09-07T13:54:12Z</time>
      </trkpt>
      <trkpt lat="45.68312" lon="5.6761">
        <ele>252</ele>
        <time>2011-09-07T13:54:25Z</time>
      </trkpt>
      <trkpt lat="45.68277" lon="5.67608">
        <ele>252.48</ele>
        <time>2011-09-07T13:54:36Z</time>
      </trkpt>
      <trkpt lat="45.6817" lon="5.67608">
        <ele>250.56</ele>
        <time>2011-09-07T13:55:06Z</time>
      </trkpt>
      <trkpt lat="45.68109" lon="5.67611">
        <ele>248.64</ele>
        <time>2011-09-07T13:55:26Z</time>
      </trkpt>
      <trkpt lat="45.67981" lon="5.67609">
        <ele>251.52</ele>
        <time>2011-09-07T13:56:02Z</time>
      </trkpt>
      <trkpt lat="45.67845" lon="5.67604">
        <ele>251.04</ele>
        <time>2011-09-07T13:56:39Z</time>
      </trkpt>
      <trkpt lat="45.67819" lon="5.6761">
        <ele>249.12</ele>
        <time>2011-09-07T14:08:18Z</time>
      </trkpt>
      <trkpt lat="45.67775" lon="5.67638">
        <ele>246.72</ele>
        <time>2011-09-07T14:08:28Z</time>
      </trkpt>
      <trkpt lat="45.67739" lon="5.67675">
        <ele>243.83</ele>
        <time>2011-09-07T14:08:39Z</time>
      </trkpt>
      <trkpt lat="45.67698" lon="5.67712">
        <ele>241.43</ele>
        <time>2011-09-07T14:08:47Z</time>
      </trkpt>
      <trkpt lat="45.6769" lon="5.67725">
        <ele>240.47</ele>
        <time>2011-09-07T14:08:49Z</time>
      </trkpt>
      <trkpt lat="45.67674" lon="5.67765">
        <ele>238.54</ele>
        <time>2011-09-07T14:09:00Z</time>
      </trkpt>
      <trkpt lat="45.67675" lon="5.67785">
        <ele>237.58</ele>
        <time>2011-09-07T14:09:13Z</time>
      </trkpt>
      <trkpt lat="45.67685" lon="5.67811">
        <ele>236.62</ele>
        <time>2011-09-07T14:09:17Z</time>
      </trkpt>
      <trkpt lat="45.67707" lon="5.67877">
        <ele>234.22</ele>
        <time>2011-09-07T14:09:25Z</time>
      </trkpt>
      <trkpt lat="45.67706" lon="5.67889">
        <ele>233.74</ele>
        <time>2011-09-07T14:09:27Z</time>
      </trkpt>
      <trkpt lat="45.67697" lon="5.67898">
        <ele>233.26</ele>
        <time>2011-09-07T14:09:30Z</time>
      </trkpt>
      <trkpt lat="45.67646" lon="5.67901">
        <ele>232.3</ele>
        <time>2011-09-07T14:09:41Z</time>
      </trkpt>
      <trkpt lat="45.67637" lon="5.67911">
        <ele>232.3</ele>
        <time>2011-09-07T14:09:43Z</time>
      </trkpt>
      <trkpt lat="45.6763" lon="5.67922">
        <ele>231.81</ele>
        <time>2011-09-07T14:09:45Z</time>
      </trkpt>
      <trkpt lat="45.67563" lon="5.67939">
        <ele>231.81</ele>
        <time>2011-09-07T14:10:01Z</time>
      </trkpt>
      <trkpt lat="45.67483" lon="5.67957">
        <ele>231.81</ele>
        <time>2011-09-07T14:10:20Z</time>
      </trkpt>
      <trkpt lat="45.67411" lon="5.67976">
        <ele>231.33</ele>
        <time>2011-09-07T14:10:37Z</time>
      </trkpt>
      <trkpt lat="45.67317" lon="5.67997">
        <ele>231.81</ele>
        <time>2011-09-07T14:11:02Z</time>
      </trkpt>
      <trkpt lat="45.67262" lon="5.67998">
        <ele>231.81</ele>
        <time>2011-09-07T14:11:17Z</time>
      </trkpt>
      <trkpt lat="45.67219" lon="5.68">
        <ele>231.33</ele>
        <time>2011-09-07T14:11:30Z</time>
      </trkpt>
      <trkpt lat="45.67177" lon="5.68003">
        <ele>231.33</ele>
        <time>2011-09-07T14:11:43Z</time>
      </trkpt>
      <trkpt lat="45.67123" lon="5.68012">
        <ele>231.33</ele>
        <time>2011-09-07T14:12:00Z</time>
      </trkpt>
      <trkpt lat="45.67075" lon="5.68024">
        <ele>231.81</ele>
        <time>2011-09-07T14:12:16Z</time>
      </trkpt>
      <trkpt lat="45.67039" lon="5.68038">
        <ele>231.81</ele>
        <time>2011-09-07T14:12:29Z</time>
      </trkpt>
      <trkpt lat="45.67005" lon="5.68069">
        <ele>230.85</ele>
        <time>2011-09-07T14:12:42Z</time>
      </trkpt>
      <trkpt lat="45.66964" lon="5.6809">
        <ele>230.37</ele>
        <time>2011-09-07T14:12:56Z</time>
      </trkpt>
      <trkpt lat="45.66924" lon="5.68098">
        <ele>230.85</ele>
        <time>2011-09-07T14:13:10Z</time>
      </trkpt>
      <trkpt lat="45.66891" lon="5.68108">
        <ele>230.85</ele>
        <time>2011-09-07T14:13:21Z</time>
      </trkpt>
      <trkpt lat="45.66864" lon="5.68116">
        <ele>231.81</ele>
        <time>2011-09-07T14:13:34Z</time>
      </trkpt>
      <trkpt lat="45.66829" lon="5.6815">
        <ele>231.81</ele>
        <time>2011-09-07T14:13:50Z</time>
      </trkpt>
      <trkpt lat="45.66805" lon="5.68164">
        <ele>231.81</ele>
        <time>2011-09-07T14:13:58Z</time>
      </trkpt>
      <trkpt lat="45.66799" lon="5.68188">
        <ele>230.85</ele>
        <time>2011-09-07T14:14:03Z</time>
      </trkpt>
      <trkpt lat="45.66814" lon="5.6825">
        <ele>229.89</ele>
        <time>2011-09-07T14:14:13Z</time>
      </trkpt>
      <trkpt lat="45.66812" lon="5.68378">
        <ele>227.01</ele>
        <time>2011-09-07T14:14:31Z</time>
      </trkpt>
      <trkpt lat="45.6681" lon="5.68468">
        <ele>226.05</ele>
        <time>2011-09-07T14:14:48Z</time>
      </trkpt>
      <trkpt lat="45.66836" lon="5.68517">
        <ele>225.57</ele>
        <time>2011-09-07T14:15:00Z</time>
      </trkpt>
      <trkpt lat="45.6686" lon="5.68551">
        <ele>225.57</ele>
        <time>2011-09-07T14:15:13Z</time>
      </trkpt>
      <trkpt lat="45.66911" lon="5.68638">
        <ele>223.64</ele>
        <time>2011-09-07T14:16:10Z</time>
      </trkpt>
      <trkpt lat="45.66952" lon="5.6871">
        <ele>224.12</ele>
        <time>2011-09-07T14:16:29Z</time>
      </trkpt>
      <trkpt lat="45.67" lon="5.68801">
        <ele>224.12</ele>
        <time>2011-09-07T14:16:59Z</time>
      </trkpt>
      <trkpt lat="45.67036" lon="5.68863">
        <ele>223.64</ele>
        <time>2011-09-07T14:17:20Z</time>
      </trkpt>
      <trkpt lat="45.67085" lon="5.68953">
        <ele>223.64</ele>
        <time>2011-09-07T14:19:05Z</time>
      </trkpt>
      <trkpt lat="45.67101" lon="5.68972">
        <ele>224.12</ele>
        <time>2011-09-07T14:19:18Z</time>
      </trkpt>
      <trkpt lat="45.67112" lon="5.68955">
        <ele>221.72</ele>
        <time>2011-09-07T14:19:26Z</time>
      </trkpt>
      <trkpt lat="45.67125" lon="5.68961">
        <ele>222.68</ele>
        <time>2011-09-07T14:19:33Z</time>
      </trkpt>
      <trkpt lat="45.67179" lon="5.69039">
        <ele>223.64</ele>
        <time>2011-09-07T14:19:48Z</time>
      </trkpt>
      <trkpt lat="45.67263" lon="5.69115">
        <ele>223.16</ele>
        <time>2011-09-07T14:20:05Z</time>
      </trkpt>
      <trkpt lat="45.67344" lon="5.69196">
        <ele>223.16</ele>
        <time>2011-09-07T14:20:23Z</time>
      </trkpt>
      <trkpt lat="45.67393" lon="5.69257">
        <ele>223.16</ele>
        <time>2011-09-07T14:20:40Z</time>
      </trkpt>
      <trkpt lat="45.67443" lon="5.69328">
        <ele>223.64</ele>
        <time>2011-09-07T14:20:59Z</time>
      </trkpt>
      <trkpt lat="45.67498" lon="5.69415">
        <ele>223.64</ele>
        <time>2011-09-07T14:21:19Z</time>
      </trkpt>
      <trkpt lat="45.67527" lon="5.69469">
        <ele>223.64</ele>
        <time>2011-09-07T14:21:30Z</time>
      </trkpt>
      <trkpt lat="45.67579" lon="5.69566">
        <ele>223.16</ele>
        <time>2011-09-07T14:21:48Z</time>
      </trkpt>
      <trkpt lat="45.67606" lon="5.69607">
        <ele>223.64</ele>
        <time>2011-09-07T14:21:57Z</time>
      </trkpt>
      <trkpt lat="45.67669" lon="5.69679">
        <ele>223.64</ele>
        <time>2011-09-07T14:22:15Z</time>
      </trkpt>
      <trkpt lat="45.67739" lon="5.69762">
        <ele>223.64</ele>
        <time>2011-09-07T14:22:35Z</time>
      </trkpt>
      <trkpt lat="45.67805" lon="5.69857">
        <ele>223.64</ele>
        <time>2011-09-07T14:22:57Z</time>
      </trkpt>
      <trkpt lat="45.67856" lon="5.69933">
        <ele>223.64</ele>
        <time>2011-09-07T14:23:15Z</time>
      </trkpt>
      <trkpt lat="45.679" lon="5.70004">
        <ele>223.64</ele>
        <time>2011-09-07T14:23:31Z</time>
      </trkpt>
      <trkpt lat="45.67946" lon="5.70084">
        <ele>223.64</ele>
        <time>2011-09-07T14:23:50Z</time>
      </trkpt>
      <trkpt lat="45.67992" lon="5.70169">
        <ele>223.64</ele>
        <time>2011-09-07T14:24:10Z</time>
      </trkpt>
      <trkpt lat="45.68045" lon="5.70265">
        <ele>224.12</ele>
        <time>2011-09-07T14:24:32Z</time>
      </trkpt>
      <trkpt lat="45.68094" lon="5.70343">
        <ele>224.12</ele>
        <time>2011-09-07T14:24:53Z</time>
      </trkpt>
      <trkpt lat="45.68146" lon="5.70415">
        <ele>224.12</ele>
        <time>2011-09-07T14:25:12Z</time>
      </trkpt>
      <trkpt lat="45.68183" lon="5.7046">
        <ele>224.12</ele>
        <time>2011-09-07T14:25:26Z</time>
      </trkpt>
      <trkpt lat="45.68228" lon="5.70505">
        <ele>224.12</ele>
        <time>2011-09-07T14:25:51Z</time>
      </trkpt>
      <trkpt lat="45.68299" lon="5.70568">
        <ele>224.12</ele>
        <time>2011-09-07T14:26:10Z</time>
      </trkpt>
      <trkpt lat="45.6837" lon="5.70618">
        <ele>224.61</ele>
        <time>2011-09-07T14:26:26Z</time>
      </trkpt>
      <trkpt lat="45.68457" lon="5.70669">
        <ele>224.61</ele>
        <time>2011-09-07T14:26:44Z</time>
      </trkpt>
      <trkpt lat="45.68518" lon="5.70694">
        <ele>224.12</ele>
        <time>2011-09-07T14:27:00Z</time>
      </trkpt>
      <trkpt lat="45.6859" lon="5.70717">
        <ele>224.12</ele>
        <time>2011-09-07T14:27:20Z</time>
      </trkpt>
      <trkpt lat="45.6866" lon="5.70726">
        <ele>224.12</ele>
        <time>2011-09-07T14:27:37Z</time>
      </trkpt>
      <trkpt lat="45.68738" lon="5.70729">
        <ele>225.09</ele>
        <time>2011-09-07T14:27:56Z</time>
      </trkpt>
      <trkpt lat="45.68806" lon="5.70743">
        <ele>225.09</ele>
        <time>2011-09-07T14:28:13Z</time>
      </trkpt>
      <trkpt lat="45.68869" lon="5.70788">
        <ele>225.57</ele>
        <time>2011-09-07T14:28:32Z</time>
      </trkpt>
      <trkpt lat="45.68928" lon="5.70791">
        <ele>226.05</ele>
        <time>2011-09-07T14:28:47Z</time>
      </trkpt>
      <trkpt lat="45.68998" lon="5.70759">
        <ele>225.57</ele>
        <time>2011-09-07T14:29:06Z</time>
      </trkpt>
      <trkpt lat="45.69078" lon="5.70728">
        <ele>225.57</ele>
        <time>2011-09-07T14:29:25Z</time>
      </trkpt>
      <trkpt lat="45.69096" lon="5.70703">
        <ele>225.09</ele>
        <time>2011-09-07T14:29:31Z</time>
      </trkpt>
      <trkpt lat="45.69141" lon="5.70646">
        <ele>226.05</ele>
        <time>2011-09-07T14:29:47Z</time>
      </trkpt>
      <trkpt lat="45.69189" lon="5.70609">
        <ele>226.05</ele>
        <time>2011-09-07T14:30:02Z</time>
      </trkpt>
      <trkpt lat="45.69227" lon="5.70563">
        <ele>225.57</ele>
        <time>2011-09-07T14:30:17Z</time>
      </trkpt>
      <trkpt lat="45.69249" lon="5.70533">
        <ele>225.57</ele>
        <time>2011-09-07T14:30:31Z</time>
      </trkpt>
      <trkpt lat="45.69282" lon="5.7049">
        <ele>226.05</ele>
        <time>2011-09-07T14:30:44Z</time>
      </trkpt>
      <trkpt lat="45.6932" lon="5.70455">
        <ele>226.05</ele>
        <time>2011-09-07T14:30:57Z</time>
      </trkpt>
      <trkpt lat="45.69374" lon="5.70423">
        <ele>225.57</ele>
        <time>2011-09-07T14:31:13Z</time>
      </trkpt>
      <trkpt lat="45.69441" lon="5.70386">
        <ele>226.05</ele>
        <time>2011-09-07T14:31:32Z</time>
      </trkpt>
      <trkpt lat="45.69491" lon="5.70356">
        <ele>226.53</ele>
        <time>2011-09-07T14:31:46Z</time>
      </trkpt>
      <trkpt lat="45.6956" lon="5.70323">
        <ele>226.53</ele>
        <time>2011-09-07T14:32:03Z</time>
      </trkpt>
      <trkpt lat="45.69658" lon="5.70258">
        <ele>226.53</ele>
        <time>2011-09-07T14:32:23Z</time>
      </trkpt>
      <trkpt lat="45.69768" lon="5.70178">
        <ele>227.01</ele>
        <time>2011-09-07T14:32:45Z</time>
      </trkpt>
      <trkpt lat="45.69828" lon="5.70112">
        <ele>226.05</ele>
        <time>2011-09-07T14:32:59Z</time>
      </trkpt>
      <trkpt lat="45.69869" lon="5.70019">
        <ele>226.05</ele>
        <time>2011-09-07T14:34:05Z</time>
      </trkpt>
      <trkpt lat="45.69922" lon="5.70006">
        <ele>226.05</ele>
        <time>2011-09-07T14:34:17Z</time>
      </trkpt>
      <trkpt lat="45.69997" lon="5.69983">
        <ele>225.57</ele>
        <time>2011-09-07T14:34:34Z</time>
      </trkpt>
      <trkpt lat="45.70064" lon="5.6996">
        <ele>226.05</ele>
        <time>2011-09-07T14:34:49Z</time>
      </trkpt>
      <trkpt lat="45.70158" lon="5.69941">
        <ele>225.57</ele>
        <time>2011-09-07T14:35:10Z</time>
      </trkpt>
      <trkpt lat="45.7025" lon="5.69936">
        <ele>226.05</ele>
        <time>2011-09-07T14:35:30Z</time>
      </trkpt>
      <trkpt lat="45.70319" lon="5.69933">
        <ele>226.53</ele>
        <time>2011-09-07T14:35:45Z</time>
      </trkpt>
      <trkpt lat="45.70393" lon="5.69924">
        <ele>227.49</ele>
        <time>2011-09-07T14:36:02Z</time>
      </trkpt>
      <trkpt lat="45.70463" lon="5.69907">
        <ele>227.97</ele>
        <time>2011-09-07T14:36:17Z</time>
      </trkpt>
      <trkpt lat="45.70519" lon="5.69884">
        <ele>228.45</ele>
        <time>2011-09-07T14:36:29Z</time>
      </trkpt>
      <trkpt lat="45.70592" lon="5.69861">
        <ele>228.45</ele>
        <time>2011-09-07T14:36:46Z</time>
      </trkpt>
      <trkpt lat="45.7068" lon="5.69849">
        <ele>227.49</ele>
        <time>2011-09-07T14:37:04Z</time>
      </trkpt>
      <trkpt lat="45.70769" lon="5.69852">
        <ele>226.53</ele>
        <time>2011-09-07T14:37:21Z</time>
      </trkpt>
      <trkpt lat="45.70865" lon="5.69852">
        <ele>225.57</ele>
        <time>2011-09-07T14:37:40Z</time>
      </trkpt>
      <trkpt lat="45.70934" lon="5.69855">
        <ele>226.53</ele>
        <time>2011-09-07T14:37:55Z</time>
      </trkpt>
      <trkpt lat="45.71001" lon="5.69858">
        <ele>227.01</ele>
        <time>2011-09-07T14:38:10Z</time>
      </trkpt>
      <trkpt lat="45.71056" lon="5.69859">
        <ele>227.49</ele>
        <time>2011-09-07T14:38:23Z</time>
      </trkpt>
      <trkpt lat="45.711" lon="5.6985">
        <ele>226.53</ele>
        <time>2011-09-07T14:38:33Z</time>
      </trkpt>
      <trkpt lat="45.71173" lon="5.69821">
        <ele>226.05</ele>
        <time>2011-09-07T14:38:49Z</time>
      </trkpt>
      <trkpt lat="45.71265" lon="5.6978">
        <ele>226.53</ele>
        <time>2011-09-07T14:39:09Z</time>
      </trkpt>
      <trkpt lat="45.71342" lon="5.69761">
        <ele>226.05</ele>
        <time>2011-09-07T14:39:27Z</time>
      </trkpt>
      <trkpt lat="45.71394" lon="5.69763">
        <ele>227.01</ele>
        <time>2011-09-07T14:39:41Z</time>
      </trkpt>
      <trkpt lat="45.71407" lon="5.69784">
        <ele>226.53</ele>
        <time>2011-09-07T14:39:46Z</time>
      </trkpt>
      <trkpt lat="45.71426" lon="5.6986">
        <ele>226.05</ele>
        <time>2011-09-07T14:40:02Z</time>
      </trkpt>
      <trkpt lat="45.71409" lon="5.69887">
        <ele>226.05</ele>
        <time>2011-09-07T14:40:09Z</time>
      </trkpt>
      <trkpt lat="45.71411" lon="5.69917">
        <ele>225.57</ele>
        <time>2011-09-07T14:40:14Z</time>
      </trkpt>
      <trkpt lat="45.71426" lon="5.69924">
        <ele>226.53</ele>
        <time>2011-09-07T14:40:18Z</time>
      </trkpt>
      <trkpt lat="45.7149" lon="5.69928">
        <ele>225.09</ele>
        <time>2011-09-07T14:40:36Z</time>
      </trkpt>
      <trkpt lat="45.71579" lon="5.6992">
        <ele>225.57</ele>
        <time>2011-09-07T14:41:45Z</time>
      </trkpt>
      <trkpt lat="45.71644" lon="5.69916">
        <ele>225.57</ele>
        <time>2011-09-07T14:42:01Z</time>
      </trkpt>
      <trkpt lat="45.71742" lon="5.69913">
        <ele>226.05</ele>
        <time>2011-09-07T14:42:20Z</time>
      </trkpt>
      <trkpt lat="45.71846" lon="5.69908">
        <ele>225.57</ele>
        <time>2011-09-07T14:42:40Z</time>
      </trkpt>
      <trkpt lat="45.71931" lon="5.6991">
        <ele>225.57</ele>
        <time>2011-09-07T14:42:57Z</time>
      </trkpt>
      <trkpt lat="45.72035" lon="5.699">
        <ele>225.57</ele>
        <time>2011-09-07T14:43:18Z</time>
      </trkpt>
      <trkpt lat="45.72125" lon="5.69894">
        <ele>226.05</ele>
        <time>2011-09-07T14:43:37Z</time>
      </trkpt>
      <trkpt lat="45.72186" lon="5.69893">
        <ele>225.57</ele>
        <time>2011-09-07T14:43:52Z</time>
      </trkpt>
      <trkpt lat="45.72209" lon="5.69887">
        <ele>225.57</ele>
        <time>2011-09-07T14:44:01Z</time>
      </trkpt>
      <trkpt lat="45.72226" lon="5.69847">
        <ele>227.01</ele>
        <time>2011-09-07T14:44:12Z</time>
      </trkpt>
      <trkpt lat="45.7223" lon="5.69827">
        <ele>227.01</ele>
        <time>2011-09-07T14:45:01Z</time>
      </trkpt>
      <trkpt lat="45.72256" lon="5.69807">
        <ele>228.45</ele>
        <time>2011-09-07T14:45:13Z</time>
      </trkpt>
      <trkpt lat="45.72306" lon="5.69784">
        <ele>229.89</ele>
        <time>2011-09-07T14:45:28Z</time>
      </trkpt>
      <trkpt lat="45.72376" lon="5.69752">
        <ele>230.37</ele>
        <time>2011-09-07T14:45:46Z</time>
      </trkpt>
      <trkpt lat="45.7246" lon="5.69713">
        <ele>229.41</ele>
        <time>2011-09-07T14:46:04Z</time>
      </trkpt>
      <trkpt lat="45.72544" lon="5.69669">
        <ele>230.37</ele>
        <time>2011-09-07T14:46:24Z</time>
      </trkpt>
      <trkpt lat="45.72611" lon="5.69661">
        <ele>230.37</ele>
        <time>2011-09-07T14:46:40Z</time>
      </trkpt>
      <trkpt lat="45.72674" lon="5.69687">
        <ele>230.85</ele>
        <time>2011-09-07T14:46:58Z</time>
      </trkpt>
      <trkpt lat="45.72697" lon="5.697">
        <ele>231.33</ele>
        <time>2011-09-07T14:47:04Z</time>
      </trkpt>
      <trkpt lat="45.72777" lon="5.69706">
        <ele>231.81</ele>
        <time>2011-09-07T14:47:23Z</time>
      </trkpt>
      <trkpt lat="45.72851" lon="5.69719">
        <ele>230.85</ele>
        <time>2011-09-07T14:47:42Z</time>
      </trkpt>
      <trkpt lat="45.72921" lon="5.69736">
        <ele>231.81</ele>
        <time>2011-09-07T14:48:00Z</time>
      </trkpt>
      <trkpt lat="45.73004" lon="5.69775">
        <ele>231.33</ele>
        <time>2011-09-07T14:48:20Z</time>
      </trkpt>
      <trkpt lat="45.73068" lon="5.69816">
        <ele>231.33</ele>
        <time>2011-09-07T14:48:36Z</time>
      </trkpt>
      <trkpt lat="45.73146" lon="5.69872">
        <ele>230.85</ele>
        <time>2011-09-07T14:48:57Z</time>
      </trkpt>
      <trkpt lat="45.73197" lon="5.69892">
        <ele>233.26</ele>
        <time>2011-09-07T14:49:10Z</time>
      </trkpt>
      <trkpt lat="45.73253" lon="5.69926">
        <ele>234.7</ele>
        <time>2011-09-07T14:49:27Z</time>
      </trkpt>
      <trkpt lat="45.73308" lon="5.69968">
        <ele>233.74</ele>
        <time>2011-09-07T14:49:45Z</time>
      </trkpt>
      <trkpt lat="45.73375" lon="5.70019">
        <ele>233.26</ele>
        <time>2011-09-07T14:50:04Z</time>
      </trkpt>
      <trkpt lat="45.73451" lon="5.70081">
        <ele>232.3</ele>
        <time>2011-09-07T14:50:23Z</time>
      </trkpt>
      <trkpt lat="45.73513" lon="5.70138">
        <ele>231.81</ele>
        <time>2011-09-07T14:50:39Z</time>
      </trkpt>
      <trkpt lat="45.73567" lon="5.70191">
        <ele>231.81</ele>
        <time>2011-09-07T14:50:56Z</time>
      </trkpt>
      <trkpt lat="45.7363" lon="5.7024">
        <ele>233.74</ele>
        <time>2011-09-07T14:54:25Z</time>
      </trkpt>
      <trkpt lat="45.73677" lon="5.70274">
        <ele>234.7</ele>
        <time>2011-09-07T14:54:43Z</time>
      </trkpt>
      <trkpt lat="45.73748" lon="5.70307">
        <ele>237.58</ele>
        <time>2011-09-07T14:55:06Z</time>
      </trkpt>
      <trkpt lat="45.73782" lon="5.70316">
        <ele>239.02</ele>
        <time>2011-09-07T14:55:17Z</time>
      </trkpt>
      <trkpt lat="45.7381" lon="5.70328">
        <ele>239.99</ele>
        <time>2011-09-07T14:55:27Z</time>
      </trkpt>
      <trkpt lat="45.73823" lon="5.70335">
        <ele>240.95</ele>
        <time>2011-09-07T14:55:39Z</time>
      </trkpt>
      <trkpt lat="45.73847" lon="5.70335">
        <ele>239.51</ele>
        <time>2011-09-07T14:55:49Z</time>
      </trkpt>
      <trkpt lat="45.73919" lon="5.70312">
        <ele>236.14</ele>
        <time>2011-09-07T14:56:02Z</time>
      </trkpt>
      <trkpt lat="45.73974" lon="5.70279">
        <ele>232.78</ele>
        <time>2011-09-07T14:56:13Z</time>
      </trkpt>
      <trkpt lat="45.73973" lon="5.70294">
        <ele>232.3</ele>
        <time>2011-09-07T14:56:19Z</time>
      </trkpt>
      <trkpt lat="45.73947" lon="5.70334">
        <ele>231.81</ele>
        <time>2011-09-07T14:56:33Z</time>
      </trkpt>
      <trkpt lat="45.73919" lon="5.70367">
        <ele>231.33</ele>
        <time>2011-09-07T14:56:41Z</time>
      </trkpt>
      <trkpt lat="45.73881" lon="5.70405">
        <ele>230.85</ele>
        <time>2011-09-07T14:56:50Z</time>
      </trkpt>
      <trkpt lat="45.73893" lon="5.7042">
        <ele>230.85</ele>
        <time>2011-09-07T14:56:55Z</time>
      </trkpt>
      <trkpt lat="45.73958" lon="5.70387">
        <ele>231.81</ele>
        <time>2011-09-07T14:57:12Z</time>
      </trkpt>
      <trkpt lat="45.74024" lon="5.70327">
        <ele>232.78</ele>
        <time>2011-09-07T14:57:31Z</time>
      </trkpt>
      <trkpt lat="45.74103" lon="5.70273">
        <ele>234.7</ele>
        <time>2011-09-07T14:57:51Z</time>
      </trkpt>
      <trkpt lat="45.74186" lon="5.70248">
        <ele>235.18</ele>
        <time>2011-09-07T14:58:08Z</time>
      </trkpt>
      <trkpt lat="45.74276" lon="5.70252">
        <ele>234.22</ele>
        <time>2011-09-07T14:58:24Z</time>
      </trkpt>
      <trkpt lat="45.74385" lon="5.70265">
        <ele>234.22</ele>
        <time>2011-09-07T14:58:44Z</time>
      </trkpt>
      <trkpt lat="45.74478" lon="5.70277">
        <ele>232.78</ele>
        <time>2011-09-07T14:59:00Z</time>
      </trkpt>
      <trkpt lat="45.74558" lon="5.70287">
        <ele>232.3</ele>
        <time>2011-09-07T14:59:15Z</time>
      </trkpt>
      <trkpt lat="45.74625" lon="5.70279">
        <ele>232.78</ele>
        <time>2011-09-07T14:59:28Z</time>
      </trkpt>
      <trkpt lat="45.74703" lon="5.70225">
        <ele>234.22</ele>
        <time>2011-09-07T14:59:46Z</time>
      </trkpt>
      <trkpt lat="45.74721" lon="5.70206">
        <ele>233.74</ele>
        <time>2011-09-07T14:59:51Z</time>
      </trkpt>
      <trkpt lat="45.7474" lon="5.70185">
        <ele>234.22</ele>
        <time>2011-09-07T14:59:58Z</time>
      </trkpt>
      <trkpt lat="45.7473" lon="5.70128">
        <ele>234.22</ele>
        <time>2011-09-07T15:00:22Z</time>
      </trkpt>
      <trkpt lat="45.74777" lon="5.70106">
        <ele>235.18</ele>
        <time>2011-09-07T15:00:42Z</time>
      </trkpt>
      <trkpt lat="45.74788" lon="5.70061">
        <ele>235.66</ele>
        <time>2011-09-07T15:00:55Z</time>
      </trkpt>
      <trkpt lat="45.74793" lon="5.70034">
        <ele>237.58</ele>
        <time>2011-09-07T15:01:10Z</time>
      </trkpt>
      <trkpt lat="45.74801" lon="5.69987">
        <ele>238.06</ele>
        <time>2011-09-07T15:01:30Z</time>
      </trkpt>
      <trkpt lat="45.74818" lon="5.69919">
        <ele>241.43</ele>
        <time>2011-09-07T15:01:57Z</time>
      </trkpt>
      <trkpt lat="45.74825" lon="5.69886">
        <ele>244.79</ele>
        <time>2011-09-07T15:02:24Z</time>
      </trkpt>
      <trkpt lat="45.74831" lon="5.69843">
        <ele>247.68</ele>
        <time>2011-09-07T15:02:53Z</time>
      </trkpt>
      <trkpt lat="45.74842" lon="5.69756">
        <ele>255.85</ele>
        <time>2011-09-07T15:03:49Z</time>
      </trkpt>
      <trkpt lat="45.74861" lon="5.69741">
        <ele>253.44</ele>
        <time>2011-09-07T15:04:35Z</time>
      </trkpt>
      <trkpt lat="45.74864" lon="5.69701">
        <ele>259.21</ele>
        <time>2011-09-07T15:05:14Z</time>
      </trkpt>
      <trkpt lat="45.74881" lon="5.69665">
        <ele>259.21</ele>
        <time>2011-09-07T15:05:31Z</time>
      </trkpt>
      <trkpt lat="45.74896" lon="5.69633">
        <ele>260.65</ele>
        <time>2011-09-07T15:05:40Z</time>
      </trkpt>
      <trkpt lat="45.74905" lon="5.69598">
        <ele>264.5</ele>
        <time>2011-09-07T15:05:54Z</time>
      </trkpt>
      <trkpt lat="45.74906" lon="5.69572">
        <ele>264.5</ele>
        <time>2011-09-07T15:06:02Z</time>
      </trkpt>
      <trkpt lat="45.74911" lon="5.69522">
        <ele>264.98</ele>
        <time>2011-09-07T15:06:16Z</time>
      </trkpt>
      <trkpt lat="45.74929" lon="5.69472">
        <ele>265.46</ele>
        <time>2011-09-07T15:06:29Z</time>
      </trkpt>
      <trkpt lat="45.7493" lon="5.69471">
        <ele>265.94</ele>
        <time>2011-09-07T15:06:30Z</time>
      </trkpt>
      <trkpt lat="45.74972" lon="5.6944">
        <ele>266.9</ele>
        <time>2011-09-07T15:06:45Z</time>
      </trkpt>
      <trkpt lat="45.75019" lon="5.6942">
        <ele>269.79</ele>
        <time>2011-09-07T15:06:58Z</time>
      </trkpt>
      <trkpt lat="45.75073" lon="5.69382">
        <ele>272.19</ele>
        <time>2011-09-07T15:07:16Z</time>
      </trkpt>
      <trkpt lat="45.75131" lon="5.69346">
        <ele>271.71</ele>
        <time>2011-09-07T15:07:32Z</time>
      </trkpt>
      <trkpt lat="45.75189" lon="5.69305">
        <ele>267.86</ele>
        <time>2011-09-07T15:07:45Z</time>
      </trkpt>
      <trkpt lat="45.75228" lon="5.69277">
        <ele>265.46</ele>
        <time>2011-09-07T15:07:52Z</time>
      </trkpt>
      <trkpt lat="45.75305" lon="5.69225">
        <ele>265.94</ele>
        <time>2011-09-07T15:08:08Z</time>
      </trkpt>
      <trkpt lat="45.75358" lon="5.69192">
        <ele>267.86</ele>
        <time>2011-09-07T15:08:20Z</time>
      </trkpt>
      <trkpt lat="45.75399" lon="5.69164">
        <ele>271.23</ele>
        <time>2011-09-07T15:08:31Z</time>
      </trkpt>
      <trkpt lat="45.75437" lon="5.69138">
        <ele>274.11</ele>
        <time>2011-09-07T15:08:42Z</time>
      </trkpt>
      <trkpt lat="45.75484" lon="5.69104">
        <ele>277</ele>
        <time>2011-09-07T15:08:55Z</time>
      </trkpt>
      <trkpt lat="45.75541" lon="5.6907">
        <ele>280.36</ele>
        <time>2011-09-07T15:09:14Z</time>
      </trkpt>
      <trkpt lat="45.7556" lon="5.69066">
        <ele>282.28</ele>
        <time>2011-09-07T15:09:26Z</time>
      </trkpt>
      <trkpt lat="45.75587" lon="5.69071">
        <ele>283.73</ele>
        <time>2011-09-07T15:09:40Z</time>
      </trkpt>
      <trkpt lat="45.75644" lon="5.69076">
        <ele>286.61</ele>
        <time>2011-09-07T15:10:05Z</time>
      </trkpt>
      <trkpt lat="45.75707" lon="5.69061">
        <ele>289.49</ele>
        <time>2011-09-07T15:10:56Z</time>
      </trkpt>
      <trkpt lat="45.75746" lon="5.69076">
        <ele>288.53</ele>
        <time>2011-09-07T15:11:10Z</time>
      </trkpt>
      <trkpt lat="45.75824" lon="5.69115">
        <ele>283.25</ele>
        <time>2011-09-07T15:11:28Z</time>
      </trkpt>
      <trkpt lat="45.75852" lon="5.69038">
        <ele>279.88</ele>
        <time>2011-09-07T15:11:47Z</time>
      </trkpt>
      <trkpt lat="45.75887" lon="5.68959">
        <ele>277</ele>
        <time>2011-09-07T15:12:13Z</time>
      </trkpt>
      <trkpt lat="45.75887" lon="5.68926">
        <ele>277.48</ele>
        <time>2011-09-07T15:12:24Z</time>
      </trkpt>
      <trkpt lat="45.75857" lon="5.68882">
        <ele>278.44</ele>
        <time>2011-09-07T15:12:36Z</time>
      </trkpt>
      <trkpt lat="45.75835" lon="5.68927">
        <ele>278.44</ele>
        <time>2011-09-07T15:15:13Z</time>
      </trkpt>
    </trkseg>
  </trk>
</gpx>